Time;durP1;ratioP1;P1;durP2;ratioP2;P2;SDS_P1;SDS_P2;PMS_P1;PMS_P2;Temp;Humidity;BMP_temperature;BMP_pressure;BME280_temperature;BME280_humidity;BME280_pressure;Samples;Min_cycle;Max_cycle;Signal;HPM_P1;HPM_P2
2024/01/17 00:01:32;;;;;;;11.57;4.15;;;;;;;;;;4982934;28;20030;-79
2024/01/17 00:03:58;;;;;;;14.00;3.80;;;;;;;;;;4982879;28;20037;-79
2024/01/17 00:06:24;;;;;;;9.32;3.97;;;-0.80;99.90;;;;;;4982274;28;20033;-79
2024/01/17 00:08:50;;;;;;;12.77;4.20;;;-0.80;99.90;;;;;;4982091;28;20023;-79
2024/01/17 00:11:16;;;;;;;14.10;4.03;;;-0.80;99.90;;;;;;4983336;28;20105;-79
2024/01/17 00:13:41;;;;;;;12.32;4.55;;;-0.80;99.90;;;;;;4981888;28;20069;-79
2024/01/17 00:16:07;;;;;;;10.95;4.63;;;-0.90;99.90;;;;;;4981091;28;20094;-79
2024/01/17 00:18:33;;;;;;;13.93;4.78;;;;;;;;;;4983583;28;20027;-79
2024/01/17 00:20:59;;;;;;;14.70;5.03;;;-0.90;99.90;;;;;;4982321;28;20023;-79
2024/01/17 00:23:24;;;;;;;34.53;5.80;;;-1.00;99.90;;;;;;4983246;28;20538;-80
2024/01/17 00:25:50;;;;;;;16.17;4.78;;;-1.00;99.90;;;;;;4981891;28;20023;-79
2024/01/17 00:28:16;;;;;;;19.83;5.50;;;;;;;;;;4982565;28;20050;-79
2024/01/17 00:30:42;;;;;;;21.15;5.18;;;-1.00;99.90;;;;;;4982174;28;20019;-80
2024/01/17 00:33:08;;;;;;;14.63;5.60;;;;;;;;;;4980680;28;20091;-79
2024/01/17 00:35:34;;;;;;;12.95;4.75;;;-1.10;99.90;;;;;;4982344;28;20058;-79
2024/01/17 00:38:00;;;;;;;14.40;5.18;;;-1.00;99.90;;;;;;4982148;28;20107;-80
2024/01/17 00:40:27;;;;;;;10.88;4.63;;;-1.10;99.90;;;;;;4981185;28;20018;-79
2024/01/17 00:42:53;;;;;;;16.10;5.18;;;-1.10;99.90;;;;;;4983384;28;20023;-79
2024/01/17 00:45:19;;;;;;;15.80;5.18;;;-1.00;99.90;;;;;;4981309;28;20047;-79
2024/01/17 00:47:45;;;;;;;12.40;4.78;;;-1.10;99.90;;;;;;4981744;28;20041;-80
2024/01/17 00:50:11;;;;;;;14.43;5.00;;;;;;;;;;4982203;28;20031;-80
2024/01/17 00:52:36;;;;;;;13.98;4.90;;;-1.00;99.90;;;;;;4982821;28;20431;-80
2024/01/17 00:55:02;;;;;;;16.65;5.30;;;-1.10;99.90;;;;;;4982242;28;20037;-80
2024/01/17 00:57:28;;;;;;;18.63;5.63;;;;;;;;;;4980791;28;20030;-80
2024/01/17 00:59:54;;;;;;;17.27;5.25;;;;;;;;;;4982335;28;20034;-80
2024/01/17 01:02:20;;;;;;;14.80;5.43;;;;;;;;;;4981220;28;20467;-80
2024/01/17 01:04:46;;;;;;;19.20;5.68;;;;;;;;;;4982585;28;20038;-80
2024/01/17 01:07:12;;;;;;;17.10;5.25;;;-1.30;99.90;;;;;;4982042;28;20026;-80
2024/01/17 01:09:38;;;;;;;18.95;5.93;;;;;;;;;;4981698;28;20041;-80
2024/01/17 01:12:04;;;;;;;14.80;5.80;;;-1.30;99.90;;;;;;4981955;28;20033;-80
2024/01/17 01:14:30;;;;;;;16.45;5.18;;;-1.30;99.90;;;;;;4981870;28;20023;-80
2024/01/17 01:16:55;;;;;;;17.77;5.57;;;-1.30;99.90;;;;;;4982172;28;20027;-80
2024/01/17 01:19:21;;;;;;;16.25;5.32;;;;;;;;;;4983159;28;20083;-80
2024/01/17 01:21:47;;;;;;;16.52;5.07;;;;;;;;;;4982509;28;20030;-80
2024/01/17 01:24:13;;;;;;;14.48;5.05;;;-1.30;99.90;;;;;;4981734;28;20037;-80
2024/01/17 01:26:38;;;;;;;15.35;5.80;;;-1.30;99.90;;;;;;4984052;28;20034;-80
2024/01/17 01:29:04;;;;;;;13.80;5.13;;;;;;;;;;4981778;28;20039;-80
2024/01/17 01:31:30;;;;;;;20.95;5.82;;;-1.40;99.90;;;;;;4983373;28;20039;-80
2024/01/17 01:33:56;;;;;;;14.07;5.50;;;;;;;;;;4984650;28;20125;-80
2024/01/17 01:36:24;;;;;;;15.10;5.95;;;-1.40;99.90;;;;;;4981208;28;20031;-80
2024/01/17 01:38:55;;;;;;;19.27;6.97;;;-1.40;99.90;;;;;;4980702;28;20022;-80
2024/01/17 01:41:43;;;;;;;16.25;5.93;;;-1.40;99.90;;;;;;4965521;28;20034;-80
2024/01/17 01:44:15;;;;;;;14.13;5.53;;;-1.40;99.90;;;;;;4977837;28;20069;-80
2024/01/17 01:46:46;;;;;;;12.63;5.45;;;-1.50;99.90;;;;;;4980355;28;20034;-80
2024/01/17 01:49:21;;;;;;;13.95;4.93;;;-2.90;99.90;;;;;;4980399;28;20031;-80
2024/01/17 01:51:58;;;;;;;12.23;5.05;;;-1.60;99.90;;;;;;4980938;28;20042;-82
2024/01/17 01:54:52;;;;;;;15.65;5.85;;;-1.50;99.90;;;;;;4980323;28;20023;-80
2024/01/17 01:57:24;;;;;;;19.88;5.82;;;-1.40;99.90;;;;;;4979485;28;20035;-80
2024/01/17 01:59:54;;;;;;;12.93;5.15;;;-1.50;99.90;;;;;;4980811;28;20019;-80
2024/01/17 02:02:22;;;;;;;16.05;5.18;;;-1.50;99.90;;;;;;4964872;28;20027;-80
2024/01/17 02:05:02;;;;;;;12.65;5.72;;;-1.40;99.90;;;;;;4980520;28;20502;-81
2024/01/17 02:07:35;;;;;;;17.77;4.75;;;-1.40;99.90;;;;;;4966630;28;20037;-80
2024/01/17 02:10:46;;;;;;;22.92;5.88;;;-1.40;99.90;;;;;;4980699;28;20034;-80
2024/01/17 02:13:17;;;;;;;15.23;5.40;;;-1.40;99.90;;;;;;4972975;28;20402;-80
2024/01/17 02:15:46;;;;;;;15.85;5.28;;;-1.40;99.90;;;;;;4980929;28;20037;-80
2024/01/17 02:18:13;;;;;;;13.50;6.03;;;-1.50;99.90;;;;;;4964622;28;20037;-81
2024/01/17 02:20:40;;;;;;;17.40;6.05;;;-1.40;99.90;;;;;;4979404;28;20027;-80
2024/01/17 02:23:22;;;;;;;17.58;5.15;;;-1.40;99.90;;;;;;4979603;28;20542;-80
2024/01/17 02:25:50;;;;;;;18.05;6.00;;;-1.40;99.90;;;;;;4980447;28;20046;-80
2024/01/17 02:28:17;;;;;;;15.23;5.57;;;-1.50;99.90;;;;;;4979797;28;20093;-80
2024/01/17 02:30:44;;;;;;;15.57;5.78;;;-1.50;99.90;;;;;;4979062;28;20023;-80
2024/01/17 02:33:10;;;;;;;18.70;5.50;;;-1.50;99.90;;;;;;4979125;28;20483;-80
2024/01/17 02:35:37;;;;;;;13.20;4.95;;;-1.50;99.90;;;;;;4979117;28;20027;-80
2024/01/17 02:38:03;;;;;;;15.50;4.75;;;-1.50;99.90;;;;;;4978246;28;20030;-80
2024/01/17 02:40:28;;;;;;;15.48;5.22;;;-1.50;99.90;;;;;;4979554;28;20038;-80
2024/01/17 02:42:57;;;;;;;13.43;5.50;;;-1.50;99.90;;;;;;4979982;28;20094;-80
2024/01/17 02:45:23;;;;;;;22.73;6.32;;;;;;;;;;4979749;28;20030;-81
2024/01/17 02:47:48;;;;;;;14.88;5.18;;;-1.50;99.90;;;;;;4979023;28;20044;-80
2024/01/17 02:50:17;;;;;;;13.00;5.32;;;-1.50;99.90;;;;;;4978916;28;20054;-80
2024/01/17 02:52:43;;;;;;;15.20;5.45;;;;;;;;;;4978960;28;20030;-80
2024/01/17 02:55:11;;;;;;;12.38;5.20;;;-1.50;99.90;;;;;;4980576;28;20479;-81
2024/01/17 02:57:38;;;;;;;14.00;5.37;;;-1.50;99.90;;;;;;4977817;28;20022;-80
2024/01/17 03:00:05;;;;;;;20.63;5.15;;;-1.50;99.90;;;;;;4979540;28;20031;-81
2024/01/17 03:02:31;;;;;;;17.38;5.22;;;-1.50;99.90;;;;;;4979487;28;20023;-80
2024/01/17 03:04:57;;;;;;;17.55;5.10;;;;;;;;;;4982629;28;20050;-80
2024/01/17 03:07:23;;;;;;;18.13;5.78;;;;;;;;;;4982898;28;20130;-80
2024/01/17 03:09:49;;;;;;;10.95;5.13;;;-1.50;99.90;;;;;;4982481;28;20098;-80
2024/01/17 03:12:15;;;;;;;22.60;6.28;;;-1.50;99.90;;;;;;4982381;28;20023;-80
2024/01/17 03:14:41;;;;;;;14.70;5.32;;;-1.60;99.90;;;;;;4990839;28;20027;-80
2024/01/17 03:17:08;;;;;;;16.00;6.75;;;;;;;;;;4991667;28;20438;-80
2024/01/17 03:19:36;;;;;;;14.77;5.43;;;;;;;;;;4990978;28;20118;-80
2024/01/17 03:22:03;;;;;;;15.60;4.47;;;;;;;;;;4990528;28;20475;-81
2024/01/17 03:24:31;;;;;;;15.98;5.55;;;;;;;;;;4989810;28;20031;-80
2024/01/17 03:26:57;;;;;;;13.70;5.18;;;;;;;;;;4991045;28;20033;-81
2024/01/17 03:29:24;;;;;;;14.57;5.75;;;;;;;;;;4990218;28;20127;-80
2024/01/17 03:31:52;;;;;;;11.52;5.13;;;;;;;;;;4991291;28;20035;-79
2024/01/17 03:34:18;;;;;;;16.20;5.22;;;;;;;;;;4990711;28;20215;-80
2024/01/17 03:36:46;;;;;;;14.32;5.82;;;;;;;;;;4989920;28;20483;-81
2024/01/17 03:39:12;;;;;;;12.88;4.63;;;;;;;;;;4991217;28;20438;-79
2024/01/17 03:41:44;;;;;;;14.48;5.13;;;;;;;;;;4991726;28;20403;-79
2024/01/17 03:44:10;;;;;;;11.35;4.78;;;;;;;;;;4990614;28;20030;-79
2024/01/17 03:46:39;;;;;;;10.57;4.72;;;;;;;;;;4991183;28;20030;-80
2024/01/17 03:49:05;;;;;;;18.50;5.18;;;;;;;;;;4990374;28;20022;-79
2024/01/17 03:51:34;;;;;;;12.57;4.32;;;;;;;;;;4990747;28;20037;-79
2024/01/17 03:54:03;;;;;;;16.63;5.63;;;;;;;;;;4990989;28;20031;-80
2024/01/17 03:56:28;;;;;;;;;;;-1.70;99.90;;;;;;4990811;28;20046;-80
2024/01/17 03:58:54;;;;;;;9.38;4.45;;;;;;;;;;4991265;28;19906;-80
2024/01/17 04:01:20;;;;;;;10.73;4.45;;;;;;;;;;4989491;28;20041;-80
2024/01/17 04:03:46;;;;;;;13.30;4.78;;;;;;;;;;4990191;28;20121;-80
2024/01/17 04:06:12;;;;;;;13.68;5.47;;;;;;;;;;4990337;28;20031;-80
2024/01/17 04:08:41;;;;;;;11.60;4.35;;;;;;;;;;4988485;28;20026;-80
2024/01/17 04:11:07;;;;;;;7.10;3.08;;;;;;;;;;4988009;28;20023;-80
2024/01/17 04:13:33;;;;;;;10.85;4.32;;;;;;;;;;4987827;28;20034;-80
2024/01/17 04:37:25;;;;;;;14.90;4.75;;;;;;;;;;5409827;23;20046;-79
2024/01/17 04:39:51;;;;;;;11.25;3.88;;;;;;;;;;5011521;28;20078;-79
2024/01/17 04:42:17;;;;;;;15.07;4.30;;;;;;;;;;5009654;28;20034;-79
2024/01/17 04:44:45;;;;;;;11.25;4.13;;;;;;;;;;5009770;28;20034;-80
2024/01/17 04:47:14;;;;;;;8.43;3.47;;;;;;;;;;5003993;28;20019;-79
2024/01/17 04:49:40;;;;;;;14.00;4.55;;;;;;;;;;5000486;28;20031;-80
2024/01/17 04:52:06;;;;;;;12.15;3.72;;;;;;;;;;4999214;28;20034;-79
2024/01/17 04:54:32;;;;;;;12.45;4.18;;;;;;;;;;4998437;28;20482;-79
2024/01/17 04:56:59;;;;;;;7.93;3.25;;;;;;;;;;5000289;28;20037;-79
2024/01/17 04:59:28;;;;;;;12.50;4.68;;;;;;;;;;4999653;28;20046;-79
2024/01/17 05:01:54;;;;;;;8.45;4.60;;;;;;;;;;4998715;28;20050;-80
2024/01/17 05:04:20;;;;;;;11.05;4.30;;;;;;;;;;5000229;28;20393;-80
2024/01/17 05:06:46;;;;;;;10.18;3.70;;;;;;;;;;4998868;28;20037;-80
2024/01/17 05:09:15;;;;;;;9.15;3.80;;;;;;;;;;5000376;28;20058;-79
2024/01/17 05:11:52;;;;;;;15.27;4.68;;;-2.10;99.90;;;;;;5001964;28;20444;-80
2024/01/17 05:14:24;;;;;;;12.60;3.80;;;-2.10;99.90;;;;;;5003334;28;20041;-80
2024/01/17 05:16:52;;;;;;;10.68;3.67;;;-2.10;99.90;;;;;;5002402;28;20034;-80
2024/01/17 05:19:18;;;;;;;10.82;2.70;;;-2.20;99.90;;;;;;4999353;28;20034;-79
2024/01/17 05:21:43;;;;;;;10.95;3.65;;;-2.20;99.90;;;;;;4998913;28;20018;-79
2024/01/17 05:24:09;;;;;;;13.70;4.45;;;-2.20;99.90;;;;;;4999960;28;20036;-79
2024/01/17 05:26:35;;;;;;;11.48;3.97;;;-2.20;99.90;;;;;;4998448;28;20076;-79
2024/01/17 05:29:01;;;;;;;8.88;4.05;;;-2.20;99.90;;;;;;4997258;28;20026;-79
2024/01/17 05:31:27;;;;;;;9.85;3.58;;;-2.20;99.90;;;;;;4997844;28;20441;-79
2024/01/17 05:33:52;;;;;;;11.95;3.60;;;-2.30;99.90;;;;;;4998002;28;20022;-79
2024/01/17 05:36:18;;;;;;;8.05;3.13;;;-2.30;99.90;;;;;;4998463;28;20026;-79
2024/01/17 05:38:43;;;;;;;15.07;3.55;;;-2.20;99.90;;;;;;4997033;28;20041;-79
2024/01/17 05:41:09;;;;;;;9.48;3.58;;;-2.30;99.90;;;;;;4998282;28;20082;-79
2024/01/17 05:43:35;;;;;;;6.28;3.20;;;-2.10;99.90;;;;;;4997231;28;20441;-79
2024/01/17 05:46:00;;;;;;;9.70;3.67;;;-2.30;99.90;;;;;;4997827;28;20028;-79
2024/01/17 05:48:26;;;;;;;10.13;3.83;;;-2.30;99.90;;;;;;4998065;28;20076;-79
2024/01/17 05:50:52;;;;;;;11.05;3.50;;;-2.30;99.90;;;;;;4997484;28;20014;-79
2024/01/17 05:53:18;;;;;;;10.27;2.90;;;-2.30;99.90;;;;;;4997019;28;20532;-79
2024/01/17 05:55:43;;;;;;;11.07;3.58;;;-2.20;99.90;;;;;;4997056;28;20018;-79
2024/01/17 05:58:09;;;;;;;8.75;2.67;;;-2.30;99.90;;;;;;4997958;28;20023;-79
2024/01/17 06:00:35;;;;;;;11.45;2.97;;;-2.30;99.90;;;;;;4997860;28;20394;-79
2024/01/17 06:03:01;;;;;;;11.68;3.10;;;-2.30;99.90;;;;;;4997898;28;20026;-79
2024/01/17 06:05:27;;;;;;;6.10;2.80;;;-2.30;99.90;;;;;;4998758;28;20022;-79
2024/01/17 06:07:52;;;;;;;9.52;2.78;;;-2.30;99.90;;;;;;4998214;28;20073;-79
2024/01/17 06:10:18;;;;;;;10.32;2.75;;;-2.30;99.90;;;;;;4998146;28;20049;-79
2024/01/17 06:12:44;;;;;;;8.25;3.00;;;;;;;;;;4997653;28;20473;-79
2024/01/17 06:15:17;;;;;;;10.68;2.88;;;-2.30;99.90;;;;;;4998652;28;20081;-79
2024/01/17 06:17:43;;;;;;;7.80;2.97;;;-2.40;99.90;;;;;;4997530;28;20022;-79
2024/01/17 06:20:11;;;;;;;9.15;3.20;;;-2.30;99.90;;;;;;4997890;28;20022;-79
2024/01/17 06:22:37;;;;;;;9.60;3.42;;;-2.30;99.90;;;;;;4997548;28;20474;-79
2024/01/17 06:25:05;;;;;;;10.90;3.38;;;-2.20;99.90;;;;;;4996928;28;20026;-79
2024/01/17 06:27:31;;;;;;;7.93;3.13;;;-2.40;99.90;;;;;;4997818;28;20026;-79
2024/01/17 06:29:57;;;;;;;16.35;3.65;;;-2.20;99.90;;;;;;5001847;28;20363;-79
2024/01/17 06:32:22;;;;;;;8.27;3.03;;;-2.30;99.90;;;;;;4999795;28;20092;-79
2024/01/17 06:34:48;;;;;;;14.00;3.83;;;-2.30;99.90;;;;;;4997735;28;20030;-79
2024/01/17 06:37:14;;;;;;;10.65;3.75;;;-2.30;99.90;;;;;;4998762;28;20152;-79
2024/01/17 06:39:39;;;;;;;7.22;3.17;;;-2.30;99.90;;;;;;5001376;28;20029;-78
2024/01/17 06:42:05;;;;;;;11.50;3.22;;;-2.30;99.90;;;;;;5001794;28;20101;-79
2024/01/17 06:44:31;;;;;;;6.47;2.70;;;-2.40;99.90;;;;;;5001464;28;20022;-79
2024/01/17 06:46:57;;;;;;;8.75;3.00;;;-2.40;99.90;;;;;;5001234;28;20038;-78
2024/01/17 06:49:51;;;;;;;10.48;3.65;;;;;;;;;;5003326;28;20019;-80
2024/01/17 06:56:26;;;;;;;8.65;3.17;;;-2.40;99.90;;;;;;5014548;28;20045;-80
2024/01/17 07:02:58;;;;;;;6.72;3.22;;;-2.40;99.90;;;;;;4998639;28;20022;-80
2024/01/17 07:09:25;;;;;;;10.60;3.45;;;-2.40;99.90;;;;;;4940661;29;20067;-80
2024/01/17 07:36:27;;;;;;;8.45;2.95;;;;;;;;;;4805431;29;20116;-81
2024/01/17 08:02:37;;;;;;;8.38;3.38;;;-2.20;99.90;;;;;;4936098;29;20133;-80
2024/01/17 08:05:47;;;;;;;10.73;3.17;;;-2.20;99.90;;;;;;4940160;29;20096;-80
2024/01/17 08:08:33;;;;;;;11.93;4.40;;;-2.20;99.90;;;;;;4921953;29;20544;-76
2024/01/17 08:10:59;;;;;;;7.80;3.72;;;-2.20;99.90;;;;;;4921392;29;20046;-76
2024/01/17 08:13:24;;;;;;;12.60;3.92;;;-2.30;99.90;;;;;;4907421;29;20028;-77
2024/01/17 08:15:50;;;;;;;11.73;4.00;;;-2.20;99.90;;;;;;4958588;28;20042;-76
2024/01/17 08:18:16;;;;;;;7.82;3.30;;;-1.90;99.90;;;;;;5001541;28;20100;-78
2024/01/17 08:20:43;;;;;;;11.43;4.68;;;-2.10;99.90;;;;;;5002269;28;20030;-78
2024/01/17 08:23:09;;;;;;;8.88;3.78;;;-2.10;99.90;;;;;;5001801;28;20041;-76
2024/01/17 08:25:34;;;;;;;13.45;4.03;;;-2.10;99.90;;;;;;5001074;28;20015;-78
2024/01/17 08:28:01;;;;;;;12.35;3.45;;;;;;;;;;5001253;28;20054;-77
2024/01/17 08:30:26;;;;;;;11.85;4.25;;;-2.10;99.90;;;;;;5001497;28;20042;-77
2024/01/17 08:32:53;;;;;;;16.40;4.05;;;-2.00;99.90;;;;;;5002625;28;20018;-77
2024/01/17 08:35:20;;;;;;;10.25;3.67;;;-1.90;99.90;;;;;;5000277;28;20022;-77
2024/01/17 08:37:45;;;;;;;13.77;4.53;;;-1.90;99.90;;;;;;5001550;28;20029;-78
2024/01/17 08:40:11;;;;;;;8.70;3.75;;;-1.90;99.90;;;;;;5000377;28;20023;-78
2024/01/17 08:42:38;;;;;;;9.90;4.22;;;-1.90;99.90;;;;;;4999964;28;20113;-77
2024/01/17 08:45:06;;;;;;;14.23;4.10;;;-1.80;99.90;;;;;;4998329;28;20121;-77
2024/01/17 08:47:32;;;;;;;7.93;3.57;;;-1.80;99.90;;;;;;4999733;28;20029;-77
2024/01/17 08:50:00;;;;;;;13.18;3.83;;;-1.70;99.90;;;;;;4999823;28;20278;-77
2024/01/17 08:52:27;;;;;;;8.63;2.97;;;-1.70;99.90;;;;;;4998225;28;20042;-77
2024/01/17 08:54:56;;;;;;;10.45;3.35;;;-1.70;99.90;;;;;;4999758;28;20479;-78
2024/01/17 08:57:23;;;;;;;11.73;3.80;;;-1.60;99.90;;;;;;4999124;28;20022;-78
2024/01/17 08:59:48;;;;;;;10.00;4.28;;;-0.60;99.90;;;;;;4998939;28;20032;-76
2024/01/17 09:02:14;;;;;;;9.40;3.95;;;-1.50;99.90;;;;;;4998466;28;20027;-78
2024/01/17 09:04:40;;;;;;;8.63;3.13;;;-1.50;99.90;;;;;;5000306;28;20030;-77
2024/01/17 09:07:08;;;;;;;7.35;3.42;;;-1.50;99.90;;;;;;4999326;28;20482;-77
2024/01/17 09:09:36;;;;;;;12.88;3.55;;;-1.50;99.90;;;;;;4999437;28;20022;-77
2024/01/17 09:12:02;;;;;;;8.75;2.92;;;-1.50;99.90;;;;;;4998363;28;20038;-77
2024/01/17 09:14:28;;;;;;;8.98;3.78;;;-1.50;99.90;;;;;;4997220;28;20069;-76
2024/01/17 09:16:53;;;;;;;10.38;3.70;;;-1.50;99.90;;;;;;4998977;28;20019;-76
2024/01/17 09:19:22;;;;;;;8.73;4.50;;;-1.30;99.90;;;;;;4997860;28;20034;-77
2024/01/17 09:21:51;;;;;;;;;;;-1.50;99.90;;;;;;4998936;28;20022;-76
2024/01/17 09:24:17;;;;;;;6.45;2.67;;;-1.40;99.90;;;;;;4998359;28;19910;-76
2024/01/17 09:26:43;;;;;;;11.73;3.28;;;-1.40;99.90;;;;;;4997230;28;20114;-76
2024/01/17 09:29:09;;;;;;;8.98;2.90;;;-1.30;99.90;;;;;;4997951;28;20186;-77
2024/01/17 09:31:35;;;;;;;10.05;3.55;;;-1.30;99.90;;;;;;4998955;28;20387;-77
2024/01/17 09:34:01;;;;;;;10.70;3.22;;;-1.20;99.90;;;;;;4999621;28;20031;-77
2024/01/17 09:36:26;;;;;;;15.15;3.50;;;-1.20;99.90;;;;;;4998601;28;20018;-77
2024/01/17 09:38:52;;;;;;;7.13;2.80;;;-1.20;99.90;;;;;;4998827;28;20541;-77
2024/01/17 09:41:19;;;;;;;13.02;3.97;;;-1.10;99.90;;;;;;4997685;28;20022;-78
2024/01/17 09:43:44;;;;;;;10.25;3.33;;;0.80;99.90;;;;;;4999434;28;20059;-77
2024/01/17 09:46:12;;;;;;;10.05;3.60;;;-1.10;99.90;;;;;;5000046;28;20489;-77
2024/01/17 09:48:41;;;;;;;6.40;2.83;;;-1.10;99.90;;;;;;4999114;28;20029;-77
2024/01/17 09:51:07;;;;;;;7.15;3.03;;;-1.00;99.90;;;;;;4997965;28;20100;-77
2024/01/17 09:53:34;;;;;;;9.05;3.40;;;-1.00;99.90;;;;;;4997796;28;20018;-77
2024/01/17 09:56:02;;;;;;;10.02;3.47;;;-0.90;99.90;;;;;;4998192;28;20485;-77
2024/01/17 09:58:37;;;;;;;9.80;2.63;;;-0.90;99.90;;;;;;4998103;28;20014;-77
2024/01/17 10:01:04;;;;;;;11.35;3.42;;;-0.80;99.90;;;;;;4998304;28;20065;-77
2024/01/17 10:03:30;;;;;;;10.23;3.22;;;-0.70;99.90;;;;;;4998515;28;20502;-78
2024/01/17 10:05:58;;;;;;;10.32;3.97;;;-0.60;99.90;;;;;;4997958;28;20057;-77
2024/01/17 10:08:24;;;;;;;11.85;3.65;;;-0.50;99.90;;;;;;4999789;28;20030;-77
2024/01/17 10:10:50;;;;;;;12.48;3.45;;;-0.50;99.90;;;;;;4999652;28;20052;-77
2024/01/17 10:13:16;;;;;;;10.15;3.78;;;-0.40;99.90;;;;;;4999077;28;20113;-78
2024/01/17 10:15:42;;;;;;;11.32;3.17;;;-0.40;99.90;;;;;;5000363;28;20100;-77
2024/01/17 10:18:12;;;;;;;10.13;3.50;;;-0.30;99.90;;;;;;4998700;28;20033;-76
2024/01/17 10:20:38;;;;;;;7.95;3.05;;;-0.30;99.90;;;;;;4999384;28;20042;-77
2024/01/17 10:23:07;;;;;;;14.90;3.80;;;-0.30;99.90;;;;;;5001124;28;20033;-76
2024/01/17 10:25:36;;;;;;;;;;;-0.30;99.90;;;;;;4999102;28;20029;-77
2024/01/17 10:28:01;;;;;;;10.55;3.53;;;-0.30;99.90;;;;;;5000593;28;19941;-77
2024/01/17 10:30:27;;;;;;;10.30;3.58;;;-0.20;99.90;;;;;;4999786;28;20033;-77
2024/01/17 10:32:53;;;;;;;8.55;3.30;;;-0.20;99.90;;;;;;4999185;28;20046;-77
2024/01/17 10:35:23;;;;;;;11.70;3.35;;;-0.10;99.90;;;;;;4999804;28;20026;-77
2024/01/17 10:37:52;;;;;;;9.23;3.80;;;-0.10;99.90;;;;;;5000664;28;20020;-77
2024/01/17 10:40:19;;;;;;;13.05;3.28;;;0.00;99.90;;;;;;4999774;28;20105;-77
2024/01/17 10:42:45;;;;;;;8.60;3.03;;;0.10;99.90;;;;;;5000658;28;20135;-77
2024/01/17 10:45:22;;;;;;;9.32;3.00;;;0.20;99.90;;;;;;4998086;28;20024;-77
2024/01/17 10:47:48;;;;;;;11.48;3.22;;;0.10;99.90;;;;;;4999740;28;20032;-77
2024/01/17 10:50:17;;;;;;;10.32;3.13;;;0.20;99.90;;;;;;4999477;28;20018;-78
2024/01/17 10:52:45;;;;;;;11.57;3.08;;;0.20;99.90;;;;;;5000402;28;20077;-77
2024/01/17 10:55:14;;;;;;;9.40;3.20;;;0.30;99.90;;;;;;4999812;28;20490;-77
2024/01/17 10:57:44;;;;;;;11.55;2.90;;;0.20;99.90;;;;;;4998508;28;20023;-76
2024/01/17 11:00:11;;;;;;;10.35;3.60;;;0.30;99.90;;;;;;5000005;28;20022;-77
2024/01/17 11:02:40;;;;;;;10.48;3.05;;;0.40;99.90;;;;;;4999244;28;20398;-77
2024/01/17 11:05:11;;;;;;;10.18;3.10;;;0.40;99.90;;;;;;4998144;28;20081;-77
2024/01/17 11:07:37;;;;;;;11.10;2.80;;;0.40;99.90;;;;;;4998704;28;20371;-77
2024/01/17 11:10:05;;;;;;;13.48;3.90;;;0.30;99.90;;;;;;4998401;28;20033;-77
2024/01/17 11:12:32;;;;;;;8.73;2.80;;;0.40;99.90;;;;;;4999125;28;20026;-77
2024/01/17 11:15:03;;;;;;;8.40;3.30;;;0.40;99.90;;;;;;4997571;28;20038;-77
2024/01/17 11:17:32;;;;;;;8.60;3.35;;;0.40;99.90;;;;;;4998806;28;20038;-78
2024/01/17 11:19:59;;;;;;;10.48;3.42;;;0.50;99.90;;;;;;4999062;28;20026;-78
2024/01/17 11:22:25;;;;;;;10.30;3.50;;;1.30;99.90;;;;;;4999194;28;20398;-78
2024/01/17 11:24:58;;;;;;;10.25;3.58;;;;;;;;;;5000498;28;20030;-78
2024/01/17 11:27:47;;;;;;;8.77;3.22;;;0.50;99.90;;;;;;5000386;28;20094;-78
2024/01/17 11:30:18;;;;;;;13.10;3.95;;;0.50;99.90;;;;;;5002187;28;20394;-77
2024/01/17 11:33:11;;;;;;;9.60;3.20;;;0.50;99.90;;;;;;5001935;28;20034;-77
2024/01/17 11:35:51;;;;;;;6.55;3.15;;;0.60;99.90;;;;;;5000059;28;20038;-76
2024/01/17 11:38:22;;;;;;;9.60;3.63;;;0.60;99.90;;;;;;5002669;28;20033;-77
2024/01/17 11:40:48;;;;;;;11.48;3.47;;;0.60;99.90;;;;;;5002496;28;20033;-77
2024/01/17 11:43:15;;;;;;;12.18;3.42;;;0.60;99.90;;;;;;5001303;28;20035;-77
2024/01/17 11:45:41;;;;;;;13.55;4.40;;;0.70;99.90;;;;;;5000343;28;20070;-77
2024/01/17 11:48:27;;;;;;;11.68;3.58;;;0.70;99.90;;;;;;5000919;28;20453;-77
2024/01/17 11:51:14;;;;;;;12.20;4.50;;;0.80;99.90;;;;;;4999542;28;20441;-77
2024/01/17 11:53:48;;;;;;;10.57;3.60;;;0.80;99.90;;;;;;5000547;28;20019;-77
2024/01/17 11:56:15;;;;;;;13.50;4.30;;;0.80;99.90;;;;;;5000142;28;20397;-77
2024/01/17 11:58:58;;;;;;;14.27;4.50;;;0.80;99.90;;;;;;5000478;28;20053;-77
2024/01/17 12:01:26;;;;;;;13.05;4.18;;;0.90;99.90;;;;;;5001664;28;20030;-78
2024/01/17 12:03:52;;;;;;;15.77;4.07;;;1.00;99.90;;;;;;5002007;28;20023;-78
2024/01/17 12:06:23;;;;;;;12.73;3.75;;;1.10;99.90;;;;;;5001447;28;20034;-78
2024/01/17 12:08:54;;;;;;;13.55;3.95;;;1.10;99.90;;;;;;5000859;28;20015;-78
2024/01/17 12:11:20;;;;;;;17.85;5.00;;;1.10;99.90;;;;;;5000403;28;20081;-78
2024/01/17 12:13:52;;;;;;;10.52;3.83;;;1.20;99.90;;;;;;5000884;28;20060;-78
2024/01/17 12:16:21;;;;;;;7.28;3.38;;;1.20;99.90;;;;;;5000231;28;20019;-78
2024/01/17 12:18:59;;;;;;;9.88;3.67;;;1.20;99.90;;;;;;5000220;28;20032;-78
2024/01/17 12:21:25;;;;;;;12.13;4.03;;;1.20;99.90;;;;;;5000872;28;20030;-78
2024/01/17 12:23:51;;;;;;;12.45;4.10;;;1.20;99.90;;;;;;5001157;28;20097;-78
2024/01/17 12:26:16;;;;;;;13.68;3.97;;;1.20;99.90;;;;;;4999868;28;20026;-78
2024/01/17 12:28:42;;;;;;;10.88;4.18;;;1.20;99.90;;;;;;5000865;28;20030;-78
2024/01/17 12:31:08;;;;;;;9.52;3.55;;;1.30;99.90;;;;;;4999970;28;20018;-78
2024/01/17 12:33:36;;;;;;;15.32;4.93;;;1.30;99.90;;;;;;4999823;28;20029;-78
2024/01/17 12:36:04;;;;;;;14.88;4.60;;;1.40;99.90;;;;;;4999964;28;20027;-78
2024/01/17 12:38:31;;;;;;;12.82;4.07;;;1.30;99.90;;;;;;4999585;28;20097;-78
2024/01/17 12:40:57;;;;;;;14.80;3.63;;;1.40;99.90;;;;;;4999721;28;20049;-78
2024/01/17 12:43:25;;;;;;;8.90;3.50;;;1.40;99.90;;;;;;4999542;28;20026;-78
2024/01/17 12:45:52;;;;;;;11.25;3.80;;;1.40;99.90;;;;;;4998944;28;20018;-78
2024/01/17 12:48:18;;;;;;;15.80;4.05;;;1.30;99.90;;;;;;4999816;28;20022;-78
2024/01/17 12:50:50;;;;;;;10.52;3.58;;;1.30;99.90;;;;;;4999900;28;20092;-77
2024/01/17 12:53:17;;;;;;;13.13;3.80;;;1.30;99.90;;;;;;5000498;28;20026;-77
2024/01/17 12:55:46;;;;;;;9.02;3.30;;;1.20;99.90;;;;;;4999053;28;20026;-77
2024/01/17 12:58:15;;;;;;;9.63;3.05;;;1.20;99.90;;;;;;4999043;28;20025;-77
2024/01/17 13:00:41;;;;;;;9.25;3.55;;;1.20;99.90;;;;;;4999421;28;20549;-78
2024/01/17 13:03:11;;;;;;;9.07;3.28;;;1.20;99.90;;;;;;5000484;28;20100;-77
2024/01/17 13:05:45;;;;;;;10.95;3.63;;;1.20;99.90;;;;;;4999248;28;20026;-77
2024/01/17 13:08:13;;;;;;;9.07;3.25;;;1.20;99.90;;;;;;4999547;28;20038;-76
2024/01/17 13:10:40;;;;;;;10.07;3.03;;;1.20;99.90;;;;;;5000058;28;20026;-78
2024/01/17 13:13:08;;;;;;;9.70;3.33;;;1.20;99.90;;;;;;4999909;28;20054;-78
2024/01/17 13:15:40;;;;;;;;;;;1.10;99.90;;;;;;4999749;28;20077;-78
2024/01/17 13:18:10;;;;;;;8.60;3.38;;;1.10;99.90;;;;;;4999641;28;20141;-78
2024/01/17 13:20:38;;;;;;;8.57;3.47;;;1.10;99.90;;;;;;4999308;28;20049;-78
2024/01/17 13:23:05;;;;;;;9.53;3.53;;;1.20;99.90;;;;;;4999191;28;20025;-78
2024/01/17 13:25:31;;;;;;;8.77;3.28;;;1.20;99.90;;;;;;4996818;28;20401;-78
2024/01/17 13:28:04;;;;;;;9.95;3.40;;;1.10;99.90;;;;;;4999969;28;20041;-78
2024/01/17 13:30:36;;;;;;;12.35;3.55;;;1.20;99.90;;;;;;4997961;28;20041;-78
2024/01/17 13:33:05;;;;;;;9.00;3.45;;;1.20;99.90;;;;;;4999159;28;20022;-78
2024/01/17 13:35:33;;;;;;;8.55;3.40;;;1.20;99.90;;;;;;5000073;28;20038;-77
2024/01/17 13:37:59;;;;;;;9.48;3.58;;;1.20;99.90;;;;;;4999506;28;20019;-78
2024/01/17 13:40:26;;;;;;;11.15;3.78;;;1.10;99.90;;;;;;5000285;28;20030;-77
2024/01/17 13:42:52;;;;;;;8.95;4.25;;;1.00;99.90;;;;;;5000445;28;20033;-77
2024/01/17 13:45:19;;;;;;;9.55;3.40;;;1.00;99.90;;;;;;4998500;28;20498;-77
2024/01/17 13:47:45;;;;;;;10.90;3.42;;;1.00;99.90;;;;;;4998939;28;20037;-77
2024/01/17 13:50:45;;;;;;;9.77;3.17;;;1.00;99.90;;;;;;5000240;28;20026;-77
2024/01/17 13:53:28;;;;;;;12.23;4.00;;;2.60;99.90;;;;;;4996721;28;20502;-77
2024/01/17 13:55:54;;;;;;;10.80;3.58;;;1.00;99.90;;;;;;4999812;28;20478;-78
2024/01/17 13:58:22;;;;;;;8.35;2.95;;;1.00;99.90;;;;;;4999120;28;20417;-78
2024/01/17 14:00:52;;;;;;;9.10;3.22;;;1.00;99.90;;;;;;4999972;28;20018;-78
2024/01/17 14:03:18;;;;;;;11.88;3.42;;;1.00;99.90;;;;;;4999755;28;20029;-78
2024/01/17 14:05:44;;;;;;;11.20;3.00;;;;;;;;;;4998791;28;20026;-78
2024/01/17 14:08:10;;;;;;;10.73;3.80;;;1.00;99.90;;;;;;5000065;28;20034;-78
2024/01/17 14:10:36;;;;;;;9.98;3.30;;;1.00;99.90;;;;;;4999172;28;20034;-78
2024/01/17 14:13:02;;;;;;;15.43;3.75;;;1.00;99.90;;;;;;4999009;28;20034;-78
2024/01/17 14:15:27;;;;;;;9.80;2.78;;;1.00;99.90;;;;;;4999374;28;20042;-78
2024/01/17 14:17:53;;;;;;;13.27;4.20;;;1.00;99.90;;;;;;5001151;28;20031;-78
2024/01/17 14:20:19;;;;;;;13.73;3.05;;;0.90;99.90;;;;;;4999321;28;20018;-78
2024/01/17 14:22:46;;;;;;;7.32;2.72;;;0.80;99.90;;;;;;5000401;28;20034;-78
2024/01/17 14:25:14;;;;;;;10.65;3.13;;;0.80;99.90;;;;;;5000162;28;20478;-78
2024/01/17 14:27:41;;;;;;;11.45;3.53;;;0.80;99.90;;;;;;5000284;28;20561;-78
2024/01/17 14:30:09;;;;;;;11.52;3.90;;;0.80;99.90;;;;;;5000256;28;20057;-78